createdAt,value
2022-11-04T00:07:24.111Z,100498.98
2022-11-04T00:17:26.124Z,100481.66
2022-11-04T00:27:46.453Z,100457.02
2022-11-04T00:37:47.733Z,100453.75
2022-11-04T00:47:48.866Z,100431.86
2022-11-04T00:57:50.001Z,100424.23
2022-11-04T01:07:51.325Z,100408.39
2022-11-04T01:17:52.445Z,100387.11
2022-11-04T01:27:55.408Z,100367.95
2022-11-04T01:37:57.769Z,100363.34
2022-11-04T01:48:17.236Z,100343.73
2022-11-04T01:58:21.652Z,100330.92
2022-11-04T02:08:23.389Z,100323.23
2022-11-04T02:18:48.931Z,100307.09
2022-11-04T02:29:17.797Z,100287.39
2022-11-04T02:39:47.367Z,100269.27
2022-11-04T02:50:11.086Z,100261.77
2022-11-04T03:00:14.118Z,100256.17
2022-11-04T03:10:23.603Z,100257.23
2022-11-04T03:20:27.010Z,100245.17
2022-11-04T03:30:33.143Z,100241.58
2022-11-04T03:40:34.700Z,100233.86
2022-11-04T03:50:44.094Z,100228.83
2022-11-04T04:00:51.653Z,100227.34
2022-11-04T04:11:05.778Z,100214.92
2022-11-04T04:21:12.114Z,100212.08
2022-11-04T04:31:38.440Z,100206.83
2022-11-04T04:42:05.948Z,100195.84
2022-11-04T04:52:07.675Z,100202.34
2022-11-04T05:02:09.143Z,100207.91
2022-11-04T05:12:10.480Z,100200.69
2022-11-04T05:22:11.806Z,100200.05
2022-11-04T05:32:13.312Z,100191.37
2022-11-04T05:42:14.598Z,100189.77
2022-11-04T05:52:15.763Z,100193.09
2022-11-04T06:02:17.057Z,100180.16
2022-11-04T06:12:19.645Z,100162.48
2022-11-04T06:22:21.395Z,100155.87
2022-11-04T06:32:22.975Z,100144.79
2022-11-04T06:42:26.301Z,100146.41
2022-11-04T06:52:27.463Z,100132.36
2022-11-04T07:02:28.805Z,100119.14
2022-11-04T07:12:30.959Z,100118.56
2022-11-04T07:22:32.950Z,100122.66
2022-11-04T07:32:34.075Z,100124.77
2022-11-04T07:42:35.468Z,100126.15
2022-11-04T07:52:40.512Z,100121.52
2022-11-04T08:02:46.348Z,100104.03
2022-11-04T08:12:47.600Z,100091.93
2022-11-04T08:22:48.753Z,100094.80
2022-11-04T08:32:49.896Z,100084.50
2022-11-04T08:42:51.091Z,100069.86
2022-11-04T08:52:52.512Z,100051.79
2022-11-04T09:02:55.541Z,100038.02
2022-11-04T09:12:56.766Z,100032.95
2022-11-04T09:22:58.128Z,100026.29
2022-11-04T09:32:59.978Z,100032.20
2022-11-04T09:43:13.268Z,100019.68
2022-11-04T09:53:27.649Z,100016.99
2022-11-04T10:03:31.574Z,100010.11
2022-11-04T10:14:11.932Z,99997.09
2022-11-04T10:24:23.969Z,99981.81
2022-11-04T10:34:43.155Z,99968.03
2022-11-04T10:44:46.044Z,99963.08
2022-11-04T10:54:49.054Z,99942.09
2022-11-04T11:04:50.142Z,99930.20
2022-11-04T11:14:51.910Z,99930.11
2022-11-04T11:24:53.079Z,99914.67
2022-11-04T11:34:54.407Z,99896.65
2022-11-04T11:45:00.381Z,99888.21
2022-11-04T11:55:12.720Z,99884.86
2022-11-04T12:15:43.666Z,99873.05
2022-11-04T12:26:06.647Z,99875.17
2022-11-04T12:36:26.896Z,99873.06
2022-11-04T12:47:07.482Z,99870.11
2022-11-04T12:57:17.484Z,99862.67
2022-11-04T13:07:24.292Z,99860.09
2022-11-04T13:17:30.302Z,99857.08
2022-11-04T13:27:36.427Z,99849.86
2022-11-04T13:38:12.398Z,99857.44
2022-11-04T13:48:18.570Z,99860.99
2022-11-04T13:58:25.281Z,99864.23
2022-11-04T14:08:27.883Z,99874.58
2022-11-04T14:18:40.004Z,99873.62
2022-11-04T14:28:46.025Z,99876.91
2022-11-04T14:38:59.025Z,99869.23
2022-11-04T14:49:01.749Z,99866.89
2022-11-04T14:59:05.814Z,99863.16
2022-11-04T15:09:43.229Z,99863.80
2022-11-04T15:19:50.244Z,99861.73
2022-11-04T15:30:00.058Z,99859.15
2022-11-04T15:40:04.947Z,99869.02
2022-11-04T15:50:22.472Z,99869.39
2022-11-04T16:00:25.253Z,99877.10
2022-11-04T16:10:30.098Z,99886.09
2022-11-04T16:20:35.018Z,99882.50
2022-11-04T16:30:36.963Z,99879.70
2022-11-04T16:40:38.599Z,99883.16
2022-11-04T16:50:40.354Z,99889.33
2022-11-04T17:00:41.591Z,99900.17
2022-11-04T17:10:43.970Z,99896.42
2022-11-04T17:20:49.290Z,99887.14
2022-11-04T17:30:50.662Z,99870.31
2022-11-04T17:41:11.753Z,99853.21
2022-11-04T17:51:13.311Z,99840.55
2022-11-04T18:01:17.307Z,99842.48
2022-11-04T18:11:37.623Z,99830.29
2022-11-04T18:21:39.057Z,99811.84
2022-11-04T18:31:46.086Z,99812.27
2022-11-04T18:41:50.185Z,99822.36
2022-11-04T18:51:51.381Z,99825.41
2022-11-04T19:01:52.909Z,99830.05
2022-11-04T19:12:14.240Z,99830.09
2022-11-04T19:22:15.791Z,99827.13
2022-11-04T19:32:17.110Z,99827.44
2022-11-04T19:42:37.399Z,99824.67
2022-11-04T19:52:38.889Z,99811.77
2022-11-04T20:02:40.360Z,99817.84
2022-11-04T20:13:03.352Z,99812.98
2022-11-04T20:23:08.938Z,99813.83
2022-11-04T20:33:11.001Z,99808.57
2022-11-04T20:43:12.193Z,99815.84
2022-11-04T20:53:45.072Z,99825.69
2022-11-04T21:04:12.687Z,99829.16
2022-11-04T21:14:18.893Z,99830.86
2022-11-04T21:24:20.407Z,99829.83
2022-11-04T21:34:22.362Z,99822.02
2022-11-04T21:44:23.732Z,99823.18
2022-11-04T21:54:26.866Z,99807.10
2022-11-04T22:04:28.238Z,99792.23
2022-11-04T22:14:30.056Z,99820.09
2022-11-04T22:24:31.319Z,99834.88
2022-11-04T22:34:32.878Z,99833.70
2022-11-04T22:44:33.985Z,99824.27
2022-11-04T22:54:35.240Z,99827.98
2022-11-04T23:04:37.348Z,99833.88
2022-11-04T23:14:41.084Z,99837.02
2022-11-04T23:25:00.977Z,99832.79
2022-11-04T23:35:20.639Z,99839.70
2022-11-04T23:45:40.797Z,99841.02
2022-11-04T23:56:00.926Z,99836.76
